TimeMST,TemperatureF,Dew PointF,Humidity,Sea Level PressureIn,VisibilityMPH,Wind Direction,Wind SpeedMPH,Gust SpeedMPH,PrecipitationIn,Events,Conditions,WindDirDegrees,DateUTC
12:58 AM,58.1,24.4,27,29.91,10.0,SSE,5.8,-,N/A,,Clear,160,2013-03-19 07:58:00
1:58 AM,59.0,26.2,29,29.89,10.0,SE,9.2,-,N/A,,Clear,130,2013-03-19 08:58:00
2:58 AM,56.3,28.4,34,29.90,10.0,SE,8.1,-,N/A,,Clear,130,2013-03-19 09:58:00
3:58 AM,56.3,27.0,32,29.97,10.0,SE,10.4,-,N/A,,Clear,130,2013-03-19 10:58:00
4:58 AM,55.4,27.7,35,29.97,10.0,ESE,2.3,-,N/A,,Clear,120,2013-03-19 11:58:00
5:58 AM,55.2,27.5,34,29.99,10.0,SSE,6.9,-,N/A,,Clear,150,2013-03-19 12:58:00
6:58 AM,57.2,29.3,35,29.91,10.0,Calm,Calm,-,N/A,,Clear,0,2013-03-19 13:58:00
7:58 AM,59.2,30.0,33,29.94,10.0,ESE,8.1,-,N/A,,Clear,120,2013-03-19 14:58:00
8:58 AM,64.4,33.6,32,29.96,10.0,ESE,2.3,-,N/A,,Clear,110,2013-03-19 15:58:00
9:58 AM,68.9,34.3,28,29.96,10.0,Calm,Calm,-,N/A,,Clear,0,2013-03-19 16:58:00
10:58 AM,71.4,28.8,21,29.96,10.0,West,8.1,-,N/A,,Clear,260,2013-03-19 17:58:00
11:58 AM,74.1,27.5,18,29.95,10.0,West,9.2,-,N/A,,Clear,260,2013-03-19 18:58:00
12:58 PM,75.7,27.0,16,29.92,10.0,WNW,10.4,-,N/A,,Clear,300,2013-03-19 19:58:00
1:58 PM,77.0,27.7,16,29.90,10.0,Variable,6.9,18.4,N/A,,Clear,0,2013-03-19 20:58:00
2:58 PM,77.7,27.0,15,29.89,10.0,NW,12.7,19.6,N/A,,Clear,310,2013-03-19 21:58:00
3:20 PM,77.0,26.6,16,29.99,10.0,NW,13.8,25.3,N/A,,Clear,310,2013-03-19 22:20:00
3:33 PM,78.8,26.6,15,29.98,10.0,WNW,15.0,-,N/A,,Clear,300,2013-03-19 22:33:00
3:34 PM,78.8,26.6,15,29.98,10.0,WNW,12.7,-,N/A,,Clear,290,2013-03-19 22:34:00
3:58 PM,78.1,27.3,15,29.89,10.0,NW,10.4,-,N/A,,Clear,320,2013-03-19 22:58:00
4:58 PM,76.6,26.2,16,29.89,10.0,NNW,9.2,-,N/A,,Clear,330,2013-03-19 23:58:00
5:58 PM,75.0,27.9,18,29.91,10.0,North,10.4,-,N/A,,Clear,360,2013-03-20 00:58:00
6:58 PM,72.0,26.6,18,29.93,10.0,North,10.4,-,N/A,,Clear,360,2013-03-20 01:58:00
7:58 PM,68.7,27.0,21,29.94,10.0,North,3.5,-,N/A,,Clear,360,2013-03-20 02:58:00
8:58 PM,64.6,27.3,25,29.97,10.0,North,1.2,-,N/A,,Clear,350,2013-03-20 03:58:00
9:58 PM,66.2,27.5,23,29.96,10.0,Calm,Calm,-,N/A,,Clear,0,2013-03-20 04:58:00
10:58 PM,60.4,27.5,29,29.99,10.0,ESE,1.2,-,N/A,,Clear,110,2013-03-20 05:58:00
11:58 PM,56.5,27.9,33,29.99,10.0,South,5.8,-,N/A,,Clear,180,2013-03-20 06:58:00